sensor_id;sensor_type;location;lat;lon;timestamp;P1;durP1;ratioP1;P2;durP2;ratioP2
78053;SDS011;67726;45.636;11.752;2024-01-27T00:01:33;193.97;;;75.50;;
78053;SDS011;67726;45.636;11.752;2024-01-27T00:03:58;182.77;;;77.20;;
78053;SDS011;67726;45.636;11.752;2024-01-27T00:06:24;198.23;;;83.20;;
78053;SDS011;67726;45.636;11.752;2024-01-27T00:08:50;211.30;;;81.90;;
78053;SDS011;67726;45.636;11.752;2024-01-27T00:11:15;212.20;;;77.87;;
78053;SDS011;67726;45.636;11.752;2024-01-27T00:13:41;185.23;;;77.03;;
78053;SDS011;67726;45.636;11.752;2024-01-27T00:16:07;209.88;;;80.50;;
78053;SDS011;67726;45.636;11.752;2024-01-27T00:18:35;198.73;;;78.32;;
78053;SDS011;67726;45.636;11.752;2024-01-27T00:21:02;202.33;;;78.10;;
78053;SDS011;67726;45.636;11.752;2024-01-27T00:23:28;210.77;;;76.78;;
78053;SDS011;67726;45.636;11.752;2024-01-27T00:25:54;219.77;;;78.45;;
78053;SDS011;67726;45.636;11.752;2024-01-27T00:28:20;189.37;;;73.90;;
78053;SDS011;67726;45.636;11.752;2024-01-27T00:30:46;225.48;;;76.20;;
78053;SDS011;67726;45.636;11.752;2024-01-27T00:33:12;202.60;;;73.20;;
78053;SDS011;67726;45.636;11.752;2024-01-27T00:35:37;192.30;;;70.78;;
78053;SDS011;67726;45.636;11.752;2024-01-27T00:38:03;190.80;;;70.97;;
78053;SDS011;67726;45.636;11.752;2024-01-27T00:40:29;174.45;;;65.50;;
78053;SDS011;67726;45.636;11.752;2024-01-27T00:42:54;147.93;;;60.83;;
78053;SDS011;67726;45.636;11.752;2024-01-27T00:45:20;167.85;;;66.65;;
78053;SDS011;67726;45.636;11.752;2024-01-27T00:47:49;136.68;;;56.92;;
78053;SDS011;67726;45.636;11.752;2024-01-27T00:50:15;142.07;;;56.00;;
78053;SDS011;67726;45.636;11.752;2024-01-27T00:52:41;151.20;;;60.78;;
78053;SDS011;67726;45.636;11.752;2024-01-27T00:55:07;139.27;;;56.72;;
78053;SDS011;67726;45.636;11.752;2024-01-27T00:57:33;154.73;;;57.73;;
78053;SDS011;67726;45.636;11.752;2024-01-27T00:59:59;150.77;;;58.55;;
78053;SDS011;67726;45.636;11.752;2024-01-27T01:02:25;147.75;;;61.63;;
78053;SDS011;67726;45.636;11.752;2024-01-27T01:04:50;164.87;;;63.43;;
78053;SDS011;67726;45.636;11.752;2024-01-27T01:07:16;170.00;;;62.47;;
78053;SDS011;67726;45.636;11.752;2024-01-27T01:09:41;165.03;;;59.63;;
78053;SDS011;67726;45.636;11.752;2024-01-27T01:12:07;168.27;;;62.03;;
78053;SDS011;67726;45.636;11.752;2024-01-27T01:14:34;180.33;;;60.57;;
78053;SDS011;67726;45.636;11.752;2024-01-27T01:17:00;168.25;;;61.42;;
78053;SDS011;67726;45.636;11.752;2024-01-27T01:19:25;147.87;;;60.30;;
78053;SDS011;67726;45.636;11.752;2024-01-27T01:21:51;164.35;;;60.35;;
78053;SDS011;67726;45.636;11.752;2024-01-27T01:24:17;162.53;;;60.13;;
78053;SDS011;67726;45.636;11.752;2024-01-27T01:26:42;164.18;;;61.10;;
78053;SDS011;67726;45.636;11.752;2024-01-27T01:29:08;147.00;;;59.83;;
78053;SDS011;67726;45.636;11.752;2024-01-27T01:31:34;161.98;;;60.10;;
78053;SDS011;67726;45.636;11.752;2024-01-27T01:33:59;158.53;;;63.10;;
78053;SDS011;67726;45.636;11.752;2024-01-27T01:36:25;161.53;;;59.23;;
78053;SDS011;67726;45.636;11.752;2024-01-27T01:38:50;169.57;;;58.13;;
78053;SDS011;67726;45.636;11.752;2024-01-27T01:41:16;155.23;;;60.20;;
78053;SDS011;67726;45.636;11.752;2024-01-27T01:43:42;153.73;;;59.17;;
78053;SDS011;67726;45.636;11.752;2024-01-27T01:46:07;141.83;;;57.27;;
78053;SDS011;67726;45.636;11.752;2024-01-27T01:48:33;140.68;;;53.60;;
78053;SDS011;67726;45.636;11.752;2024-01-27T01:50:59;150.80;;;60.33;;
78053;SDS011;67726;45.636;11.752;2024-01-27T01:53:25;151.07;;;56.65;;
78053;SDS011;67726;45.636;11.752;2024-01-27T01:55:51;146.50;;;56.97;;
78053;SDS011;67726;45.636;11.752;2024-01-27T01:58:17;146.15;;;59.15;;
78053;SDS011;67726;45.636;11.752;2024-01-27T02:00:43;148.32;;;56.53;;
78053;SDS011;67726;45.636;11.752;2024-01-27T02:03:12;136.77;;;58.07;;
78053;SDS011;67726;45.636;11.752;2024-01-27T02:05:38;142.37;;;55.07;;
78053;SDS011;67726;45.636;11.752;2024-01-27T02:08:04;144.75;;;58.42;;
78053;SDS011;67726;45.636;11.752;2024-01-27T02:10:30;157.00;;;56.20;;
78053;SDS011;67726;45.636;11.752;2024-01-27T02:13:14;134.15;;;53.60;;
78053;SDS011;67726;45.636;11.752;2024-01-27T02:15:43;144.50;;;54.42;;
78053;SDS011;67726;45.636;11.752;2024-01-27T02:18:09;144.73;;;56.63;;
78053;SDS011;67726;45.636;11.752;2024-01-27T02:20:35;131.85;;;57.53;;
78053;SDS011;67726;45.636;11.752;2024-01-27T02:23:00;134.57;;;56.13;;
78053;SDS011;67726;45.636;11.752;2024-01-27T02:25:29;129.52;;;53.35;;
78053;SDS011;67726;45.636;11.752;2024-01-27T02:27:55;125.25;;;54.67;;
78053;SDS011;67726;45.636;11.752;2024-01-27T02:30:21;125.20;;;52.63;;
78053;SDS011;67726;45.636;11.752;2024-01-27T02:32:46;116.50;;;51.37;;
78053;SDS011;67726;45.636;11.752;2024-01-27T02:35:12;118.82;;;52.97;;
78053;SDS011;67726;45.636;11.752;2024-01-27T02:37:39;121.72;;;55.88;;
78053;SDS011;67726;45.636;11.752;2024-01-27T02:40:05;124.65;;;55.53;;
78053;SDS011;67726;45.636;11.752;2024-01-27T02:42:32;119.00;;;54.27;;
78053;SDS011;67726;45.636;11.752;2024-01-27T02:44:58;122.80;;;54.75;;
78053;SDS011;67726;45.636;11.752;2024-01-27T02:47:24;123.03;;;56.33;;
78053;SDS011;67726;45.636;11.752;2024-01-27T02:49:49;123.05;;;52.25;;
78053;SDS011;67726;45.636;11.752;2024-01-27T02:52:15;115.13;;;53.20;;
78053;SDS011;67726;45.636;11.752;2024-01-27T02:54:41;130.18;;;56.33;;
78053;SDS011;67726;45.636;11.752;2024-01-27T02:57:06;124.80;;;56.20;;
78053;SDS011;67726;45.636;11.752;2024-01-27T02:59:32;130.95;;;56.92;;
78053;SDS011;67726;45.636;11.752;2024-01-27T03:01:58;133.60;;;58.30;;
78053;SDS011;67726;45.636;11.752;2024-01-27T03:04:23;134.43;;;56.67;;
78053;SDS011;67726;45.636;11.752;2024-01-27T03:06:49;136.20;;;57.27;;
78053;SDS011;67726;45.636;11.752;2024-01-27T03:09:14;135.57;;;58.72;;
78053;SDS011;67726;45.636;11.752;2024-01-27T03:11:40;144.13;;;57.03;;
78053;SDS011;67726;45.636;11.752;2024-01-27T03:14:06;145.10;;;58.93;;
78053;SDS011;67726;45.636;11.752;2024-01-27T03:16:32;133.67;;;58.30;;
78053;SDS011;67726;45.636;11.752;2024-01-27T03:18:57;169.45;;;66.97;;
78053;SDS011;67726;45.636;11.752;2024-01-27T03:21:23;127.10;;;55.57;;
78053;SDS011;67726;45.636;11.752;2024-01-27T03:23:49;143.27;;;60.23;;
78053;SDS011;67726;45.636;11.752;2024-01-27T03:26:14;134.35;;;55.38;;
78053;SDS011;67726;45.636;11.752;2024-01-27T03:28:40;146.13;;;57.87;;
78053;SDS011;67726;45.636;11.752;2024-01-27T03:31:06;132.97;;;55.37;;
78053;SDS011;67726;45.636;11.752;2024-01-27T03:33:31;130.10;;;58.40;;
78053;SDS011;67726;45.636;11.752;2024-01-27T03:35:57;137.90;;;58.40;;
78053;SDS011;67726;45.636;11.752;2024-01-27T03:38:23;135.63;;;56.30;;
78053;SDS011;67726;45.636;11.752;2024-01-27T03:40:48;127.28;;;55.78;;
78053;SDS011;67726;45.636;11.752;2024-01-27T03:43:14;131.65;;;55.80;;
78053;SDS011;67726;45.636;11.752;2024-01-27T03:45:40;144.53;;;61.23;;
78053;SDS011;67726;45.636;11.752;2024-01-27T03:48:06;139.63;;;56.57;;
78053;SDS011;67726;45.636;11.752;2024-01-27T03:50:32;138.65;;;55.42;;
78053;SDS011;67726;45.636;11.752;2024-01-27T03:52:57;132.07;;;55.92;;
78053;SDS011;67726;45.636;11.752;2024-01-27T03:55:23;142.33;;;57.33;;
78053;SDS011;67726;45.636;11.752;2024-01-27T03:57:48;140.33;;;57.30;;
78053;SDS011;67726;45.636;11.752;2024-01-27T04:00:14;142.10;;;58.50;;
78053;SDS011;67726;45.636;11.752;2024-01-27T04:02:40;158.23;;;62.27;;
78053;SDS011;67726;45.636;11.752;2024-01-27T04:05:06;165.30;;;64.07;;
78053;SDS011;67726;45.636;11.752;2024-01-27T04:07:32;155.75;;;60.60;;
78053;SDS011;67726;45.636;11.752;2024-01-27T04:09:57;168.73;;;64.70;;
78053;SDS011;67726;45.636;11.752;2024-01-27T04:12:23;167.23;;;63.42;;
78053;SDS011;67726;45.636;11.752;2024-01-27T04:14:49;163.10;;;59.37;;
78053;SDS011;67726;45.636;11.752;2024-01-27T04:17:14;165.50;;;60.10;;
78053;SDS011;67726;45.636;11.752;2024-01-27T04:19:40;166.88;;;61.83;;
78053;SDS011;67726;45.636;11.752;2024-01-27T04:22:05;156.73;;;59.13;;
78053;SDS011;67726;45.636;11.752;2024-01-27T04:24:31;167.63;;;63.75;;
78053;SDS011;67726;45.636;11.752;2024-01-27T04:26:57;154.37;;;62.97;;
78053;SDS011;67726;45.636;11.752;2024-01-27T04:29:24;164.85;;;63.13;;
78053;SDS011;67726;45.636;11.752;2024-01-27T04:31:50;158.00;;;63.30;;
78053;SDS011;67726;45.636;11.752;2024-01-27T04:34:15;159.50;;;61.00;;
78053;SDS011;67726;45.636;11.752;2024-01-27T04:36:41;150.57;;;59.27;;
78053;SDS011;67726;45.636;11.752;2024-01-27T04:39:07;151.82;;;60.55;;
78053;SDS011;67726;45.636;11.752;2024-01-27T04:41:32;164.70;;;61.67;;
78053;SDS011;67726;45.636;11.752;2024-01-27T04:43:58;157.50;;;59.15;;
78053;SDS011;67726;45.636;11.752;2024-01-27T04:46:24;143.20;;;60.73;;
78053;SDS011;67726;45.636;11.752;2024-01-27T04:48:50;151.93;;;62.10;;
78053;SDS011;67726;45.636;11.752;2024-01-27T04:51:15;159.77;;;61.30;;
78053;SDS011;67726;45.636;11.752;2024-01-27T04:53:41;149.93;;;61.95;;
78053;SDS011;67726;45.636;11.752;2024-01-27T04:56:07;152.37;;;62.53;;
78053;SDS011;67726;45.636;11.752;2024-01-27T04:58:34;147.90;;;59.03;;
78053;SDS011;67726;45.636;11.752;2024-01-27T05:01:01;143.90;;;60.08;;
78053;SDS011;67726;45.636;11.752;2024-01-27T05:03:27;145.43;;;57.90;;
78053;SDS011;67726;45.636;11.752;2024-01-27T05:05:52;144.35;;;59.58;;
78053;SDS011;67726;45.636;11.752;2024-01-27T05:08:18;139.67;;;57.87;;
78053;SDS011;67726;45.636;11.752;2024-01-27T05:10:44;143.93;;;58.08;;
78053;SDS011;67726;45.636;11.752;2024-01-27T05:13:10;148.77;;;57.33;;
78053;SDS011;67726;45.636;11.752;2024-01-27T05:15:36;147.68;;;59.95;;
78053;SDS011;67726;45.636;11.752;2024-01-27T05:18:01;140.73;;;60.67;;
78053;SDS011;67726;45.636;11.752;2024-01-27T05:20:27;144.70;;;58.63;;
78053;SDS011;67726;45.636;11.752;2024-01-27T05:22:53;141.40;;;52.27;;
78053;SDS011;67726;45.636;11.752;2024-01-27T05:25:18;137.02;;;55.90;;
78053;SDS011;67726;45.636;11.752;2024-01-27T05:27:44;125.93;;;54.80;;
78053;SDS011;67726;45.636;11.752;2024-01-27T05:30:10;134.13;;;55.13;;
78053;SDS011;67726;45.636;11.752;2024-01-27T05:32:36;142.40;;;55.55;;
78053;SDS011;67726;45.636;11.752;2024-01-27T05:35:02;125.13;;;53.33;;
78053;SDS011;67726;45.636;11.752;2024-01-27T05:37:28;151.40;;;57.47;;
78053;SDS011;67726;45.636;11.752;2024-01-27T05:39:54;132.67;;;49.60;;
78053;SDS011;67726;45.636;11.752;2024-01-27T05:42:21;142.38;;;52.83;;
78053;SDS011;67726;45.636;11.752;2024-01-27T05:44:46;153.15;;;59.17;;
78053;SDS011;67726;45.636;11.752;2024-01-27T05:47:12;141.33;;;54.43;;
78053;SDS011;67726;45.636;11.752;2024-01-27T05:49:38;133.23;;;51.70;;
78053;SDS011;67726;45.636;11.752;2024-01-27T05:52:03;118.70;;;48.20;;
78053;SDS011;67726;45.636;11.752;2024-01-27T05:54:29;120.25;;;48.65;;
78053;SDS011;67726;45.636;11.752;2024-01-27T05:56:55;124.97;;;51.47;;
78053;SDS011;67726;45.636;11.752;2024-01-27T05:59:21;110.60;;;46.30;;
78053;SDS011;67726;45.636;11.752;2024-01-27T06:01:46;106.63;;;50.10;;
78053;SDS011;67726;45.636;11.752;2024-01-27T06:04:12;102.00;;;45.17;;
78053;SDS011;67726;45.636;11.752;2024-01-27T06:06:38;115.63;;;47.45;;
78053;SDS011;67726;45.636;11.752;2024-01-27T06:09:04;105.67;;;49.17;;
78053;SDS011;67726;45.636;11.752;2024-01-27T06:11:30;107.10;;;49.30;;
78053;SDS011;67726;45.636;11.752;2024-01-27T06:13:56;109.82;;;46.90;;
78053;SDS011;67726;45.636;11.752;2024-01-27T06:16:23;114.70;;;50.83;;
78053;SDS011;67726;45.636;11.752;2024-01-27T06:18:49;95.05;;;43.10;;
78053;SDS011;67726;45.636;11.752;2024-01-27T06:21:14;91.57;;;41.93;;
78053;SDS011;67726;45.636;11.752;2024-01-27T06:23:40;80.90;;;37.97;;
78053;SDS011;67726;45.636;11.752;2024-01-27T06:26:06;78.17;;;37.23;;
78053;SDS011;67726;45.636;11.752;2024-01-27T06:28:32;108.40;;;45.08;;
78053;SDS011;67726;45.636;11.752;2024-01-27T06:30:59;108.25;;;47.10;;
78053;SDS011;67726;45.636;11.752;2024-01-27T06:33:25;105.07;;;45.83;;
78053;SDS011;67726;45.636;11.752;2024-01-27T06:35:51;105.50;;;43.60;;
78053;SDS011;67726;45.636;11.752;2024-01-27T06:38:17;112.40;;;47.85;;
78053;SDS011;67726;45.636;11.752;2024-01-27T06:40:42;110.00;;;48.00;;
78053;SDS011;67726;45.636;11.752;2024-01-27T06:43:10;104.53;;;46.92;;
78053;SDS011;67726;45.636;11.752;2024-01-27T06:45:37;101.10;;;44.63;;
78053;SDS011;67726;45.636;11.752;2024-01-27T06:48:03;107.73;;;44.77;;
78053;SDS011;67726;45.636;11.752;2024-01-27T06:50:29;110.05;;;50.22;;
78053;SDS011;67726;45.636;11.752;2024-01-27T06:52:54;104.07;;;45.60;;
78053;SDS011;67726;45.636;11.752;2024-01-27T06:55:20;119.65;;;48.95;;
78053;SDS011;67726;45.636;11.752;2024-01-27T06:57:46;104.80;;;45.33;;
78053;SDS011;67726;45.636;11.752;2024-01-27T07:00:12;116.88;;;53.15;;
78053;SDS011;67726;45.636;11.752;2024-01-27T07:02:39;115.60;;;50.43;;
78053;SDS011;67726;45.636;11.752;2024-01-27T07:05:08;110.30;;;50.42;;
78053;SDS011;67726;45.636;11.752;2024-01-27T07:07:34;105.40;;;47.58;;
78053;SDS011;67726;45.636;11.752;2024-01-27T07:10:01;108.47;;;47.92;;
78053;SDS011;67726;45.636;11.752;2024-01-27T07:12:27;138.65;;;56.75;;
78053;SDS011;67726;45.636;11.752;2024-01-27T07:14:52;122.17;;;52.47;;
78053;SDS011;67726;45.636;11.752;2024-01-27T07:17:20;118.85;;;50.85;;
78053;SDS011;67726;45.636;11.752;2024-01-27T07:19:46;103.45;;;42.58;;
78053;SDS011;67726;45.636;11.752;2024-01-27T07:22:11;110.03;;;44.03;;
78053;SDS011;67726;45.636;11.752;2024-01-27T07:24:37;108.95;;;47.47;;
78053;SDS011;67726;45.636;11.752;2024-01-27T07:27:03;114.10;;;44.90;;
78053;SDS011;67726;45.636;11.752;2024-01-27T07:29:29;103.88;;;43.95;;
78053;SDS011;67726;45.636;11.752;2024-01-27T07:31:54;105.25;;;43.63;;
78053;SDS011;67726;45.636;11.752;2024-01-27T07:34:21;107.47;;;44.10;;
78053;SDS011;67726;45.636;11.752;2024-01-27T07:36:46;90.07;;;40.60;;
78053;SDS011;67726;45.636;11.752;2024-01-27T07:39:14;95.53;;;41.85;;
78053;SDS011;67726;45.636;11.752;2024-01-27T07:41:40;108.10;;;42.57;;
78053;SDS011;67726;45.636;11.752;2024-01-27T07:44:09;94.60;;;39.30;;
78053;SDS011;67726;45.636;11.752;2024-01-27T07:46:36;77.32;;;35.20;;
78053;SDS011;67726;45.636;11.752;2024-01-27T07:49:05;99.68;;;41.00;;
78053;SDS011;67726;45.636;11.752;2024-01-27T07:51:31;92.93;;;39.47;;
78053;SDS011;67726;45.636;11.752;2024-01-27T07:53:58;88.22;;;40.38;;
78053;SDS011;67726;45.636;11.752;2024-01-27T07:56:24;92.45;;;39.92;;
78053;SDS011;67726;45.636;11.752;2024-01-27T07:58:50;83.37;;;39.33;;
78053;SDS011;67726;45.636;11.752;2024-01-27T08:01:16;89.10;;;38.75;;
78053;SDS011;67726;45.636;11.752;2024-01-27T08:03:42;92.43;;;39.75;;
78053;SDS011;67726;45.636;11.752;2024-01-27T08:06:13;88.40;;;40.33;;
78053;SDS011;67726;45.636;11.752;2024-01-27T08:08:42;72.88;;;38.35;;
78053;SDS011;67726;45.636;11.752;2024-01-27T08:11:09;83.90;;;37.95;;
78053;SDS011;67726;45.636;11.752;2024-01-27T08:13:35;84.90;;;35.57;;
78053;SDS011;67726;45.636;11.752;2024-01-27T08:16:00;74.40;;;36.20;;
78053;SDS011;67726;45.636;11.752;2024-01-27T08:18:26;75.50;;;32.20;;
78053;SDS011;67726;45.636;11.752;2024-01-27T08:20:52;74.28;;;34.63;;
78053;SDS011;67726;45.636;11.752;2024-01-27T08:23:17;80.17;;;36.20;;
78053;SDS011;67726;45.636;11.752;2024-01-27T08:25:43;71.03;;;34.53;;
78053;SDS011;67726;45.636;11.752;2024-01-27T08:28:15;81.07;;;36.00;;
78053;SDS011;67726;45.636;11.752;2024-01-27T08:30:40;82.05;;;37.95;;
78053;SDS011;67726;45.636;11.752;2024-01-27T08:33:06;81.87;;;36.77;;
78053;SDS011;67726;45.636;11.752;2024-01-27T08:35:31;76.80;;;37.10;;
78053;SDS011;67726;45.636;11.752;2024-01-27T08:37:57;81.15;;;36.67;;
78053;SDS011;67726;45.636;11.752;2024-01-27T08:40:23;88.23;;;39.17;;
78053;SDS011;67726;45.636;11.752;2024-01-27T08:42:49;83.47;;;37.15;;
78053;SDS011;67726;45.636;11.752;2024-01-27T08:45:14;84.17;;;39.87;;
78053;SDS011;67726;45.636;11.752;2024-01-27T08:47:40;90.95;;;40.67;;
78053;SDS011;67726;45.636;11.752;2024-01-27T08:50:06;81.30;;;35.77;;
78053;SDS011;67726;45.636;11.752;2024-01-27T08:52:32;76.10;;;34.70;;
78053;SDS011;67726;45.636;11.752;2024-01-27T08:54:57;77.85;;;35.47;;
78053;SDS011;67726;45.636;11.752;2024-01-27T08:57:23;78.53;;;35.00;;
78053;SDS011;67726;45.636;11.752;2024-01-27T08:59:49;75.22;;;35.60;;
78053;SDS011;67726;45.636;11.752;2024-01-27T09:02:15;74.23;;;34.97;;
78053;SDS011;67726;45.636;11.752;2024-01-27T09:04:41;77.10;;;35.92;;
78053;SDS011;67726;45.636;11.752;2024-01-27T09:07:06;74.30;;;34.90;;
78053;SDS011;67726;45.636;11.752;2024-01-27T09:09:32;71.15;;;34.70;;
78053;SDS011;67726;45.636;11.752;2024-01-27T09:11:58;78.57;;;36.63;;
78053;SDS011;67726;45.636;11.752;2024-01-27T09:14:24;79.65;;;38.22;;
78053;SDS011;67726;45.636;11.752;2024-01-27T09:16:49;80.97;;;39.47;;
78053;SDS011;67726;45.636;11.752;2024-01-27T09:19:17;81.22;;;38.35;;
78053;SDS011;67726;45.636;11.752;2024-01-27T09:21:43;79.53;;;38.17;;
78053;SDS011;67726;45.636;11.752;2024-01-27T09:24:08;85.87;;;40.03;;
78053;SDS011;67726;45.636;11.752;2024-01-27T09:26:34;86.07;;;38.43;;
78053;SDS011;67726;45.636;11.752;2024-01-27T09:29:00;91.20;;;41.13;;
78053;SDS011;67726;45.636;11.752;2024-01-27T09:31:25;104.33;;;46.53;;
78053;SDS011;67726;45.636;11.752;2024-01-27T09:33:52;96.50;;;42.20;;
78053;SDS011;67726;45.636;11.752;2024-01-27T09:36:19;88.30;;;43.33;;
78053;SDS011;67726;45.636;11.752;2024-01-27T09:38:45;86.93;;;39.63;;
78053;SDS011;67726;45.636;11.752;2024-01-27T09:41:12;82.60;;;38.13;;
78053;SDS011;67726;45.636;11.752;2024-01-27T09:43:41;83.68;;;38.67;;
78053;SDS011;67726;45.636;11.752;2024-01-27T09:46:10;79.65;;;39.63;;
78053;SDS011;67726;45.636;11.752;2024-01-27T09:48:36;80.25;;;37.50;;
78053;SDS011;67726;45.636;11.752;2024-01-27T09:51:03;84.43;;;39.43;;
78053;SDS011;67726;45.636;11.752;2024-01-27T09:53:29;76.35;;;38.90;;
78053;SDS011;67726;45.636;11.752;2024-01-27T09:55:58;76.72;;;38.20;;
78053;SDS011;67726;45.636;11.752;2024-01-27T09:58:30;85.80;;;40.07;;
78053;SDS011;67726;45.636;11.752;2024-01-27T10:00:57;82.65;;;39.92;;
78053;SDS011;67726;45.636;11.752;2024-01-27T10:03:24;81.93;;;39.58;;
78053;SDS011;67726;45.636;11.752;2024-01-27T10:05:52;83.65;;;39.35;;
78053;SDS011;67726;45.636;11.752;2024-01-27T10:08:19;76.63;;;37.55;;
78053;SDS011;67726;45.636;11.752;2024-01-27T10:10:46;67.30;;;33.77;;
78053;SDS011;67726;45.636;11.752;2024-01-27T10:13:12;69.68;;;34.42;;
78053;SDS011;67726;45.636;11.752;2024-01-27T10:15:42;71.85;;;35.20;;
78053;SDS011;67726;45.636;11.752;2024-01-27T10:18:08;70.72;;;35.10;;
78053;SDS011;67726;45.636;11.752;2024-01-27T10:20:38;75.80;;;36.63;;
78053;SDS011;67726;45.636;11.752;2024-01-27T10:23:10;71.70;;;34.38;;
78053;SDS011;67726;45.636;11.752;2024-01-27T10:25:37;72.35;;;34.83;;
78053;SDS011;67726;45.636;11.752;2024-01-27T10:28:04;73.50;;;34.78;;
78053;SDS011;67726;45.636;11.752;2024-01-27T10:30:33;71.13;;;36.47;;
78053;SDS011;67726;45.636;11.752;2024-01-27T10:33:00;65.87;;;34.83;;
78053;SDS011;67726;45.636;11.752;2024-01-27T10:35:25;73.63;;;36.30;;
78053;SDS011;67726;45.636;11.752;2024-01-27T10:37:54;68.22;;;34.42;;
78053;SDS011;67726;45.636;11.752;2024-01-27T10:40:21;69.60;;;34.83;;
78053;SDS011;67726;45.636;11.752;2024-01-27T10:43:02;72.63;;;35.85;;
78053;SDS011;67726;45.636;11.752;2024-01-27T10:45:37;74.25;;;38.88;;
78053;SDS011;67726;45.636;11.752;2024-01-27T10:48:09;77.45;;;36.63;;
78053;SDS011;67726;45.636;11.752;2024-01-27T10:50:39;70.93;;;37.20;;
78053;SDS011;67726;45.636;11.752;2024-01-27T10:53:08;70.77;;;36.10;;
78053;SDS011;67726;45.636;11.752;2024-01-27T10:55:38;79.32;;;38.05;;
78053;SDS011;67726;45.636;11.752;2024-01-27T10:58:07;73.53;;;36.10;;
78053;SDS011;67726;45.636;11.752;2024-01-27T11:00:33;76.88;;;40.15;;
78053;SDS011;67726;45.636;11.752;2024-01-27T11:03:01;79.57;;;38.70;;
78053;SDS011;67726;45.636;11.752;2024-01-27T11:05:28;76.33;;;37.90;;
78053;SDS011;67726;45.636;11.752;2024-01-27T11:07:55;73.30;;;38.40;;
78053;SDS011;67726;45.636;11.752;2024-01-27T11:10:22;71.55;;;35.10;;
78053;SDS011;67726;45.636;11.752;2024-01-27T11:12:48;77.82;;;38.17;;
78053;SDS011;67726;45.636;11.752;2024-01-27T11:15:16;71.90;;;36.78;;
78053;SDS011;67726;45.636;11.752;2024-01-27T11:17:41;74.47;;;37.40;;
78053;SDS011;67726;45.636;11.752;2024-01-27T11:20:08;78.47;;;37.65;;
78053;SDS011;67726;45.636;11.752;2024-01-27T11:22:37;80.03;;;39.22;;
78053;SDS011;67726;45.636;11.752;2024-01-27T11:27:36;72.03;;;36.63;;
78053;SDS011;67726;45.636;11.752;2024-01-27T11:30:02;71.82;;;37.40;;
78053;SDS011;67726;45.636;11.752;2024-01-27T11:32:30;74.22;;;38.40;;
78053;SDS011;67726;45.636;11.752;2024-01-27T11:34:55;80.97;;;39.70;;
78053;SDS011;67726;45.636;11.752;2024-01-27T11:37:22;78.43;;;39.67;;
78053;SDS011;67726;45.636;11.752;2024-01-27T11:39:51;74.97;;;36.00;;
78053;SDS011;67726;45.636;11.752;2024-01-27T11:42:19;79.30;;;38.35;;
78053;SDS011;67726;45.636;11.752;2024-01-27T11:44:45;78.72;;;39.55;;
78053;SDS011;67726;45.636;11.752;2024-01-27T11:47:15;76.00;;;36.97;;
78053;SDS011;67726;45.636;11.752;2024-01-27T11:49:42;75.85;;;37.53;;
78053;SDS011;67726;45.636;11.752;2024-01-27T11:52:08;76.28;;;39.03;;
78053;SDS011;67726;45.636;11.752;2024-01-27T11:54:34;76.60;;;36.53;;
78053;SDS011;67726;45.636;11.752;2024-01-27T11:57:01;79.05;;;39.25;;
78053;SDS011;67726;45.636;11.752;2024-01-27T11:59:27;78.03;;;38.70;;
78053;SDS011;67726;45.636;11.752;2024-01-27T12:01:52;81.17;;;39.53;;
78053;SDS011;67726;45.636;11.752;2024-01-27T12:04:18;81.77;;;39.33;;
78053;SDS011;67726;45.636;11.752;2024-01-27T12:06:46;70.72;;;36.60;;
78053;SDS011;67726;45.636;11.752;2024-01-27T12:09:13;82.65;;;41.03;;
78053;SDS011;67726;45.636;11.752;2024-01-27T12:11:41;78.93;;;38.92;;
78053;SDS011;67726;45.636;11.752;2024-01-27T12:14:07;77.33;;;39.40;;
78053;SDS011;67726;45.636;11.752;2024-01-27T12:16:33;76.50;;;38.92;;
78053;SDS011;67726;45.636;11.752;2024-01-27T12:18:58;82.60;;;41.30;;
78053;SDS011;67726;45.636;11.752;2024-01-27T12:21:24;83.15;;;40.28;;
78053;SDS011;67726;45.636;11.752;2024-01-27T12:23:54;81.25;;;40.65;;
78053;SDS011;67726;45.636;11.752;2024-01-27T12:26:21;80.80;;;41.37;;
78053;SDS011;67726;45.636;11.752;2024-01-27T12:28:47;86.30;;;39.30;;
78053;SDS011;67726;45.636;11.752;2024-01-27T12:31:16;89.03;;;42.80;;
78053;SDS011;67726;45.636;11.752;2024-01-27T12:33:55;96.40;;;45.75;;
78053;SDS011;67726;45.636;11.752;2024-01-27T12:36:24;101.13;;;44.53;;
78053;SDS011;67726;45.636;11.752;2024-01-27T12:38:54;91.57;;;42.70;;
78053;SDS011;67726;45.636;11.752;2024-01-27T12:41:24;84.55;;;42.75;;
78053;SDS011;67726;45.636;11.752;2024-01-27T12:43:51;105.82;;;47.53;;
78053;SDS011;67726;45.636;11.752;2024-01-27T12:46:17;109.50;;;48.45;;
78053;SDS011;67726;45.636;11.752;2024-01-27T12:48:44;116.23;;;48.43;;
78053;SDS011;67726;45.636;11.752;2024-01-27T12:51:10;118.28;;;50.15;;
78053;SDS011;67726;45.636;11.752;2024-01-27T12:53:39;116.18;;;48.03;;
78053;SDS011;67726;45.636;11.752;2024-01-27T12:56:08;110.97;;;50.60;;
78053;SDS011;67726;45.636;11.752;2024-01-27T12:58:38;112.87;;;50.33;;
78053;SDS011;67726;45.636;11.752;2024-01-27T13:01:05;118.50;;;52.83;;
78053;SDS011;67726;45.636;11.752;2024-01-27T13:03:30;115.10;;;49.88;;
78053;SDS011;67726;45.636;11.752;2024-01-27T13:05:56;124.68;;;51.13;;
78053;SDS011;67726;45.636;11.752;2024-01-27T13:08:22;119.53;;;52.60;;
78053;SDS011;67726;45.636;11.752;2024-01-27T13:10:48;130.45;;;53.50;;
78053;SDS011;67726;45.636;11.752;2024-01-27T13:13:14;122.38;;;52.75;;
78053;SDS011;67726;45.636;11.752;2024-01-27T13:15:40;121.63;;;52.07;;
78053;SDS011;67726;45.636;11.752;2024-01-27T13:18:06;132.20;;;53.42;;
78053;SDS011;67726;45.636;11.752;2024-01-27T13:20:32;118.70;;;50.23;;
78053;SDS011;67726;45.636;11.752;2024-01-27T13:23:00;122.80;;;51.65;;
78053;SDS011;67726;45.636;11.752;2024-01-27T13:25:26;121.28;;;52.40;;
78053;SDS011;67726;45.636;11.752;2024-01-27T13:27:52;132.43;;;54.20;;
78053;SDS011;67726;45.636;11.752;2024-01-27T13:30:17;124.93;;;53.13;;
78053;SDS011;67726;45.636;11.752;2024-01-27T13:32:43;124.97;;;54.77;;
78053;SDS011;67726;45.636;11.752;2024-01-27T13:35:09;126.07;;;54.07;;
78053;SDS011;67726;45.636;11.752;2024-01-27T13:37:35;112.82;;;49.65;;
78053;SDS011;67726;45.636;11.752;2024-01-27T13:40:02;106.47;;;48.97;;
78053;SDS011;67726;45.636;11.752;2024-01-27T13:42:29;121.70;;;52.22;;
78053;SDS011;67726;45.636;11.752;2024-01-27T13:44:55;119.73;;;51.90;;
78053;SDS011;67726;45.636;11.752;2024-01-27T13:47:21;125.53;;;55.33;;
78053;SDS011;67726;45.636;11.752;2024-01-27T13:49:46;127.68;;;56.05;;
78053;SDS011;67726;45.636;11.752;2024-01-27T13:52:13;123.63;;;54.67;;
78053;SDS011;67726;45.636;11.752;2024-01-27T13:54:38;133.02;;;56.03;;
78053;SDS011;67726;45.636;11.752;2024-01-27T13:57:04;130.27;;;56.43;;
78053;SDS011;67726;45.636;11.752;2024-01-27T13:59:30;129.15;;;56.13;;